Time;durP1;ratioP1;P1;durP2;ratioP2;P2;SDS_P1;SDS_P2;PMS_P1;PMS_P2;Temp;Humidity;BMP_temperature;BMP_pressure;BME280_temperature;BME280_humidity;BME280_pressure;Samples;Min_cycle;Max_cycle;Signal;HPM_P1;HPM_P2
2023/06/28 00:01:01;;;;;;;5.72;1.60;;;18.80;77.10;;;;;;5089769;28;20079;-81
2023/06/28 00:03:28;;;;;;;6.88;1.90;;;18.70;77.60;;;;;;5057888;28;20178;-81
2023/06/28 00:05:53;;;;;;;7.45;1.70;;;18.70;77.70;;;;;;5054788;28;20102;-82
2023/06/28 00:08:19;;;;;;;5.80;1.60;;;18.70;77.80;;;;;;5054771;28;20045;-81
2023/06/28 00:10:45;;;;;;;6.60;1.80;;;18.60;77.70;;;;;;5054652;28;20044;-81
2023/06/28 00:13:11;;;;;;;4.90;1.48;;;18.60;77.70;;;;;;5053510;28;20055;-81
2023/06/28 00:15:36;;;;;;;7.00;1.85;;;18.50;78.00;;;;;;5051767;28;20076;-82
2023/06/28 00:18:02;;;;;;;5.05;1.60;;;18.50;78.40;;;;;;5053534;28;20098;-82
2023/06/28 00:20:28;;;;;;;5.45;1.75;;;18.50;78.50;;;;;;5052848;28;20399;-82
2023/06/28 00:22:54;;;;;;;7.18;1.70;;;18.40;78.30;;;;;;5055747;28;20041;-81
2023/06/28 00:25:20;;;;;;;5.30;1.77;;;18.40;78.70;;;;;;5058015;28;20097;-81
2023/06/28 00:27:46;;;;;;;5.80;2.00;;;18.40;78.80;;;;;;5055012;28;20064;-81
2023/06/28 00:30:13;;;;;;;5.00;1.70;;;18.30;79.00;;;;;;5046290;28;20045;-82
2023/06/28 00:32:39;;;;;;;5.38;1.63;;;18.30;79.30;;;;;;5052014;28;20085;-82
2023/06/28 00:35:08;;;;;;;4.72;1.70;;;18.30;79.00;;;;;;5050673;28;20069;-81
2023/06/28 00:37:33;;;;;;;4.93;1.83;;;18.30;79.30;;;;;;5051850;28;20052;-81
2023/06/28 00:40:00;;;;;;;6.45;1.88;;;18.20;79.60;;;;;;5084314;28;20041;-82
2023/06/28 00:42:25;;;;;;;7.85;1.98;;;18.20;79.50;;;;;;5068343;28;20072;-82
2023/06/28 00:44:51;;;;;;;8.52;1.75;;;18.20;79.50;;;;;;5084107;28;20041;-81
2023/06/28 00:47:18;;;;;;;5.82;1.73;;;18.10;79.60;;;;;;5052232;28;20067;-82
2023/06/28 00:49:45;;;;;;;6.32;2.00;;;18.10;79.80;;;;;;5051877;28;20525;-82
2023/06/28 00:52:12;;;;;;;4.75;1.55;;;18.10;79.80;;;;;;5050718;28;20061;-82
2023/06/28 00:54:39;;;;;;;5.07;1.55;;;18.00;79.90;;;;;;5042551;28;20050;-82
2023/06/28 00:57:05;;;;;;;5.53;1.73;;;18.00;80.00;;;;;;5033290;28;20099;-82
2023/06/28 00:59:31;;;;;;;5.32;1.65;;;18.00;79.90;;;;;;5049342;28;20041;-82
2023/06/28 01:01:57;;;;;;;5.63;1.73;;;18.00;80.10;;;;;;5049014;28;20111;-80
2023/06/28 01:04:23;;;;;;;5.13;1.58;;;18.00;80.30;;;;;;5054051;28;20116;-81
2023/06/28 01:06:54;;;;;;;6.00;1.98;;;17.90;80.30;;;;;;5058168;28;20410;-81
2023/06/28 01:09:21;;;;;;;6.50;2.00;;;17.90;80.50;;;;;;5061148;28;20055;-80
2023/06/28 01:11:50;;;;;;;6.40;2.00;;;17.90;80.60;;;;;;5058164;28;20053;-81
2023/06/28 01:14:16;;;;;;;6.45;1.90;;;17.90;80.20;;;;;;5059738;28;20120;-81
2023/06/28 01:16:42;;;;;;;5.03;1.70;;;17.80;80.60;;;;;;5060712;28;20053;-81
2023/06/28 01:19:13;;;;;;;6.88;2.25;;;17.90;81.00;;;;;;5087989;28;20509;-81
2023/06/28 01:21:41;;;;;;;5.75;1.98;;;17.90;80.90;;;;;;5064431;28;20056;-82
2023/06/28 01:24:10;;;;;;;4.88;1.83;;;17.90;80.90;;;;;;5057751;28;20044;-82
2023/06/28 01:26:40;;;;;;;5.72;1.80;;;17.90;81.00;;;;;;5060277;28;20041;-81
2023/06/28 01:29:07;;;;;;;6.03;2.28;;;17.90;80.90;;;;;;5058693;28;20033;-81
2023/06/28 01:31:34;;;;;;;5.80;1.80;;;17.80;80.90;;;;;;5076546;28;20105;-81
2023/06/28 01:34:00;;;;;;;6.20;2.10;;;17.80;81.00;;;;;;5064250;28;20041;-81
2023/06/28 01:36:26;;;;;;;6.40;1.95;;;17.80;81.00;;;;;;5057532;28;20049;-81
2023/06/28 01:38:54;;;;;;;5.38;1.90;;;17.80;80.80;;;;;;5059316;28;20115;-82
2023/06/28 01:41:20;;;;;;;6.20;2.05;;;17.80;80.90;;;;;;5057086;28;20052;-82
2023/06/28 01:43:46;;;;;;;5.35;2.03;;;17.80;80.80;;;;;;5055875;28;20045;-82
2023/06/28 01:46:12;;;;;;;6.55;2.35;;;17.80;80.80;;;;;;5056143;28;20052;-81
2023/06/28 01:48:38;;;;;;;6.32;1.70;;;17.80;80.90;;;;;;5055310;28;20078;-82
2023/06/28 01:51:04;;;;;;;4.78;1.75;;;17.70;80.60;;;;;;5045202;28;20414;-82
2023/06/28 01:53:30;;;;;;;4.22;1.83;;;17.70;80.50;;;;;;5062591;28;20739;-82
2023/06/28 01:55:56;;;;;;;6.93;2.00;;;17.70;80.60;;;;;;5055609;28;20044;-82
2023/06/28 01:58:21;;;;;;;5.30;1.95;;;17.60;80.70;;;;;;5055019;28;20143;-83
2023/06/28 02:00:47;;;;;;;3.65;1.77;;;17.50;81.00;;;;;;5055213;28;20037;-82
2023/06/28 02:03:13;;;;;;;6.07;2.22;;;17.60;81.10;;;;;;5058445;28;20274;-82
2023/06/28 02:05:40;;;;;;;5.38;1.92;;;17.50;81.20;;;;;;5054964;28;20044;-79
2023/06/28 02:08:06;;;;;;;5.15;1.90;;;17.50;81.20;;;;;;5055319;28;20048;-82
2023/06/28 02:10:33;;;;;;;5.75;1.98;;;17.50;81.40;;;;;;5054148;28;20048;-82
2023/06/28 02:12:59;;;;;;;5.22;1.80;;;17.40;81.50;;;;;;5088141;28;20069;-82
2023/06/28 02:15:24;;;;;;;5.35;1.92;;;17.40;81.20;;;;;;5063086;28;20037;-81
2023/06/28 02:17:50;;;;;;;7.13;2.03;;;17.40;81.50;;;;;;5054746;28;20048;-81
2023/06/28 02:20:15;;;;;;;5.40;2.00;;;17.30;81.30;;;;;;5056274;28;20075;-81
2023/06/28 02:22:41;;;;;;;6.82;2.00;;;17.30;81.90;;;;;;5055651;28;20083;-82
2023/06/28 02:25:07;;;;;;;6.68;1.90;;;17.30;82.00;;;;;;5055020;28;20045;-81
2023/06/28 02:27:33;;;;;;;5.40;1.98;;;17.20;82.00;;;;;;5055012;28;20052;-81
2023/06/28 02:29:58;;;;;;;5.80;2.00;;;17.20;82.20;;;;;;5055300;28;20529;-81
2023/06/28 02:32:25;;;;;;;5.55;2.17;;;17.20;82.20;;;;;;5054704;28;20045;-81
2023/06/28 02:34:50;;;;;;;5.47;2.00;;;17.10;81.90;;;;;;5087447;28;20056;-81
2023/06/28 02:37:16;;;;;;;6.55;2.30;;;17.10;82.20;;;;;;5053897;28;20045;-81
2023/06/28 02:39:42;;;;;;;5.95;2.05;;;17.10;82.40;;;;;;5036994;28;20059;-81
2023/06/28 02:42:08;;;;;;;4.70;1.83;;;17.10;82.00;;;;;;5055269;28;20498;-81
2023/06/28 02:44:36;;;;;;;5.10;2.13;;;17.00;81.80;;;;;;5087416;28;20123;-82
2023/06/28 02:47:02;;;;;;;6.53;2.03;;;17.00;82.20;;;;;;5055125;28;20055;-82
2023/06/28 02:49:28;;;;;;;6.30;2.10;;;17.00;82.20;;;;;;5054615;28;20045;-82
2023/06/28 02:51:53;;;;;;;5.97;2.00;;;17.00;82.70;;;;;;5087659;28;20057;-82
2023/06/28 02:54:19;;;;;;;5.25;2.10;;;17.00;82.80;;;;;;5055013;28;20105;-81
2023/06/28 02:56:45;;;;;;;5.35;2.25;;;16.90;83.00;;;;;;5054008;28;20048;-81
2023/06/28 02:59:11;;;;;;;6.15;2.28;;;16.90;82.90;;;;;;5061766;28;20433;-82
2023/06/28 03:01:36;;;;;;;5.63;2.20;;;17.00;82.60;;;;;;5073616;28;20055;-82
2023/06/28 03:04:02;;;;;;;6.68;2.13;;;16.90;82.80;;;;;;5073566;28;20040;-82
2023/06/28 03:06:28;;;;;;;5.43;2.13;;;16.90;82.80;;;;;;5067743;28;20053;-82
2023/06/28 03:08:53;;;;;;;6.78;2.13;;;17.00;83.30;;;;;;5053873;28;20397;-81
2023/06/28 03:11:19;;;;;;;4.85;2.22;;;17.00;84.20;;;;;;5054609;28;20087;-82
2023/06/28 03:13:45;;;;;;;5.20;2.22;;;17.00;83.20;;;;;;5054936;28;20033;-80
2023/06/28 03:16:10;;;;;;;8.32;2.40;;;17.00;83.00;;;;;;5054099;28;20621;-80
2023/06/28 03:18:36;;;;;;;4.15;1.92;;;17.00;82.50;;;;;;5054774;28;20045;-81
2023/06/28 03:21:02;;;;;;;5.90;2.25;;;17.00;82.90;;;;;;5053991;28;20106;-82
2023/06/28 03:23:27;;;;;;;5.75;2.20;;;17.00;82.70;;;;;;5054194;28;20037;-81
2023/06/28 03:25:53;;;;;;;5.55;2.10;;;17.00;82.80;;;;;;5053245;28;20053;-81
2023/06/28 03:28:19;;;;;;;5.38;2.10;;;17.00;82.40;;;;;;5054589;28;20056;-82
2023/06/28 03:30:45;;;;;;;6.63;2.30;;;16.90;81.90;;;;;;5068899;28;20052;-82
2023/06/28 03:33:10;;;;;;;5.88;2.08;;;16.90;81.60;;;;;;5054631;28;20059;-82
2023/06/28 03:35:36;;;;;;;4.65;1.98;;;16.90;81.40;;;;;;5054007;28;20045;-82
2023/06/28 03:38:02;;;;;;;5.68;2.20;;;16.80;80.80;;;;;;5055247;28;20103;-82
2023/06/28 03:40:30;;;;;;;5.13;2.00;;;16.80;81.30;;;;;;5053737;28;20049;-82
2023/06/28 03:42:56;;;;;;;4.45;2.00;;;16.80;81.20;;;;;;5086126;28;20116;-82
2023/06/28 03:45:22;;;;;;;3.90;1.85;;;16.80;81.20;;;;;;5053976;28;20132;-82
2023/06/28 03:47:48;;;;;;;5.72;2.10;;;16.70;80.60;;;;;;5053859;28;20537;-82
2023/06/28 03:50:14;;;;;;;5.72;2.30;;;16.70;81.20;;;;;;5054008;28;20044;-83
2023/06/28 03:52:40;;;;;;;4.80;1.70;;;16.70;81.30;;;;;;5052985;28;20053;-83
2023/06/28 03:55:06;;;;;;;5.88;2.05;;;16.70;81.10;;;;;;5053762;28;20044;-83
2023/06/28 03:57:32;;;;;;;4.90;1.95;;;16.70;81.10;;;;;;5085421;28;20045;-83
2023/06/28 03:59:58;;;;;;;6.13;2.28;;;16.60;80.80;;;;;;5054138;28;20186;-84
2023/06/28 04:02:24;;;;;;;5.57;1.90;;;16.70;81.50;;;;;;5045949;28;20557;-85
2023/06/28 04:04:50;;;;;;;4.60;1.90;;;16.70;81.20;;;;;;5053293;28;20041;-85
2023/06/28 04:07:15;;;;;;;4.90;2.00;;;16.70;82.00;;;;;;5054153;28;20048;-84
2023/06/28 04:09:43;;;;;;;6.47;2.00;;;16.60;82.10;;;;;;5057225;28;20106;-84
2023/06/28 04:12:09;;;;;;;6.88;2.00;;;16.70;82.10;;;;;;5064861;28;20507;-85
2023/06/28 04:14:35;;;;;;;4.53;1.65;;;16.60;83.10;;;;;;5087738;28;20055;-85
2023/06/28 04:17:00;;;;;;;4.90;1.80;;;16.60;83.40;;;;;;5054269;28;20123;-83
2023/06/28 04:19:26;;;;;;;5.38;1.80;;;16.70;83.30;;;;;;5053594;28;20623;-84
2023/06/28 04:21:52;;;;;;;4.55;1.92;;;16.60;83.40;;;;;;5053559;28;20037;-85
2023/06/28 04:24:17;;;;;;;4.75;2.03;;;16.70;83.40;;;;;;5053447;28;20110;-84
2023/06/28 04:26:43;;;;;;;5.47;2.03;;;16.70;83.50;;;;;;5053475;28;20056;-85
2023/06/28 04:29:08;;;;;;;4.35;1.88;;;16.60;83.50;;;;;;5055038;28;20045;-85
2023/06/28 04:31:34;;;;;;;4.90;1.92;;;16.70;84.10;;;;;;5055291;28;20106;-84
2023/06/28 04:34:00;;;;;;;5.40;2.08;;;16.60;84.00;;;;;;5075283;28;20040;-84
2023/06/28 04:36:26;;;;;;;4.68;1.92;;;16.60;83.90;;;;;;5070304;28;20479;-85
2023/06/28 04:38:54;;;;;;;5.38;2.00;;;16.60;85.20;;;;;;5083426;28;20424;-85
2023/06/28 04:41:26;;;;;;;4.07;1.98;;;16.60;84.60;;;;;;5052729;28;20044;-85
2023/06/28 04:43:56;;;;;;;4.25;1.70;;;16.70;84.60;;;;;;5046980;28;20033;-85
2023/06/28 04:46:22;;;;;;;4.30;1.92;;;16.60;84.30;;;;;;5056879;28;20041;-84
2023/06/28 04:48:50;;;;;;;4.30;1.92;;;16.60;84.10;;;;;;5057796;28;20040;-84
2023/06/28 04:51:17;;;;;;;4.50;1.75;;;16.60;84.30;;;;;;5061657;28;20407;-85
2023/06/28 04:53:43;;;;;;;6.15;1.90;;;16.70;84.70;;;;;;5075741;28;20509;-85
2023/06/28 04:56:09;;;;;;;6.68;1.90;;;16.70;84.30;;;;;;5075365;28;20044;-84
2023/06/28 04:58:37;;;;;;;5.53;1.80;;;16.70;84.60;;;;;;5059638;28;20135;-85
2023/06/28 05:01:07;;;;;;;6.18;2.05;;;16.70;84.70;;;;;;5071844;28;20514;-85
2023/06/28 05:03:35;;;;;;;4.63;1.77;;;16.70;85.00;;;;;;5073875;28;20041;-85
2023/06/28 05:06:07;;;;;;;7.38;1.90;;;16.70;85.00;;;;;;5057061;28;20044;-84
2023/06/28 05:08:33;;;;;;;4.82;1.90;;;16.70;84.60;;;;;;5039566;28;20045;-84
2023/06/28 05:11:00;;;;;;;8.82;2.80;;;16.70;84.80;;;;;;5067027;28;20056;-84
2023/06/28 05:13:25;;;;;;;6.53;2.20;;;16.80;87.50;;;;;;5075066;28;20047;-84
2023/06/28 05:15:52;;;;;;;3.78;1.70;;;16.80;87.70;;;;;;5074914;28;20032;-84
2023/06/28 05:18:18;;;;;;;6.57;2.63;;;16.80;86.40;;;;;;5076709;28;20049;-84
2023/06/28 05:20:44;;;;;;;4.32;1.90;;;16.80;88.30;;;;;;5076565;28;20082;-84
2023/06/28 05:23:15;;;;;;;5.88;2.00;;;16.80;87.20;;;;;;5076845;28;20040;-84
2023/06/28 05:25:42;;;;;;;5.00;1.80;;;16.80;86.70;;;;;;5074819;28;20044;-84
2023/06/28 05:28:09;;;;;;;5.65;2.00;;;16.80;86.10;;;;;;5068281;28;20048;-84
2023/06/28 05:30:35;;;;;;;4.40;2.08;;;16.90;85.70;;;;;;5075208;28;20047;-84
2023/06/28 05:33:02;;;;;;;5.55;2.10;;;16.80;85.90;;;;;;5073803;28;20044;-85
2023/06/28 05:35:35;;;;;;;4.35;2.03;;;16.80;85.70;;;;;;5077086;28;20459;-86
2023/06/28 05:38:02;;;;;;;5.60;1.85;;;16.80;84.40;;;;;;5078995;28;20079;-84
2023/06/28 05:40:29;;;;;;;6.38;2.10;;;16.80;84.70;;;;;;5076140;28;20124;-86
2023/06/28 05:42:57;;;;;;;7.20;2.08;;;16.70;85.10;;;;;;5077856;28;20102;-84
2023/06/28 05:45:26;;;;;;;4.68;2.05;;;16.70;86.70;;;;;;5078151;28;20049;-85
2023/06/28 05:47:52;;;;;;;4.90;1.90;;;16.70;86.30;;;;;;5077002;28;20123;-86
2023/06/28 05:50:20;;;;;;;8.68;2.78;;;16.80;87.00;;;;;;5076784;28;20037;-85
2023/06/28 05:52:46;;;;;;;5.40;2.30;;;16.80;87.80;;;;;;5076365;28;20055;-86
2023/06/28 05:55:12;;;;;;;5.47;2.65;;;16.80;86.60;;;;;;5062381;28;20542;-86
2023/06/28 05:57:39;;;;;;;6.78;2.40;;;16.80;87.40;;;;;;5076901;28;20482;-85
2023/06/28 06:00:06;;;;;;;7.22;2.67;;;16.80;86.80;;;;;;5057691;28;20048;-85
2023/06/28 06:02:32;;;;;;;6.47;3.35;;;16.80;87.00;;;;;;5063250;28;20052;-85
2023/06/28 06:04:59;;;;;;;4.82;1.80;;;16.80;89.20;;;;;;5058861;28;20049;-85
2023/06/28 06:07:25;;;;;;;5.40;2.30;;;16.80;87.40;;;;;;5066051;28;20048;-84
2023/06/28 06:09:53;;;;;;;5.72;2.60;;;16.80;87.20;;;;;;5077894;28;20121;-85
2023/06/28 06:12:20;;;;;;;5.57;2.30;;;16.80;87.80;;;;;;5071406;28;20073;-85
2023/06/28 06:14:50;;;;;;;11.32;4.15;;;16.80;87.40;;;;;;5040044;28;20045;-85
2023/06/28 06:17:17;;;;;;;7.55;3.00;;;16.90;90.30;;;;;;5057483;28;20529;-85
2023/06/28 06:19:42;;;;;;;6.88;2.72;;;16.90;89.30;;;;;;5056168;28;20166;-85
2023/06/28 06:22:08;;;;;;;10.35;3.72;;;16.90;89.20;;;;;;5059080;28;20076;-86
2023/06/28 06:24:34;;;;;;;7.82;3.13;;;16.90;90.30;;;;;;5077145;28;20109;-86
2023/06/28 06:26:59;;;;;;;5.68;2.60;;;17.00;90.40;;;;;;5075061;28;20040;-86
2023/06/28 06:29:25;;;;;;;7.03;2.65;;;17.00;89.30;;;;;;5077541;28;20059;-87
2023/06/28 06:31:50;;;;;;;7.65;3.20;;;17.00;89.40;;;;;;5075566;28;20048;-86
2023/06/28 06:34:16;;;;;;;6.28;3.38;;;17.00;90.10;;;;;;5060691;28;20040;-87
2023/06/28 06:36:42;;;;;;;7.95;4.00;;;17.00;90.60;;;;;;5059551;28;20037;-86
2023/06/28 06:39:07;;;;;;;8.48;3.70;;;17.00;91.10;;;;;;5077976;28;20053;-87
2023/06/28 06:41:36;;;;;;;7.57;3.15;;;17.10;91.10;;;;;;5075077;28;20102;-88
2023/06/28 06:44:02;;;;;;;9.15;3.38;;;17.00;90.70;;;;;;5076978;28;20040;-87
2023/06/28 06:46:28;;;;;;;7.13;3.00;;;17.10;91.00;;;;;;5076758;28;20135;-87
2023/06/28 06:48:55;;;;;;;7.28;2.97;;;17.10;90.70;;;;;;5075854;28;20111;-84
2023/06/28 06:51:23;;;;;;;8.80;4.30;;;17.10;90.70;;;;;;5072246;28;20060;-85
2023/06/28 06:53:51;;;;;;;6.78;3.38;;;17.10;91.80;;;;;;5076200;28;20045;-85
2023/06/28 06:56:23;;;;;;;9.27;4.28;;;17.20;91.70;;;;;;5041901;28;20029;-84
2023/06/28 06:58:49;;;;;;;6.90;2.55;;;17.10;92.20;;;;;;5057782;28;20060;-85
2023/06/28 07:01:14;;;;;;;7.60;3.25;;;17.10;91.40;;;;;;5052034;28;20483;-85
2023/06/28 07:03:40;;;;;;;5.75;2.47;;;17.20;91.40;;;;;;5062521;28;20052;-85
2023/06/28 07:06:06;;;;;;;9.68;3.70;;;17.20;90.50;;;;;;5056210;28;20063;-85
2023/06/28 07:08:33;;;;;;;6.70;2.70;;;17.20;91.00;;;;;;5069422;28;20105;-85
2023/06/28 07:10:59;;;;;;;10.70;4.05;;;17.20;90.80;;;;;;5055277;28;20056;-84
2023/06/28 07:13:25;;;;;;;9.73;3.90;;;17.20;91.40;;;;;;5055556;28;20037;-85
2023/06/28 07:15:50;;;;;;;8.93;3.00;;;17.20;92.10;;;;;;5070772;28;20037;-84
2023/06/28 07:18:16;;;;;;;9.30;3.88;;;17.20;91.30;;;;;;5056103;28;20060;-84
2023/06/28 07:20:42;;;;;;;7.90;2.80;;;17.20;92.10;;;;;;5063454;28;20040;-85
2023/06/28 07:23:07;;;;;;;7.88;3.63;;;17.30;91.70;;;;;;5054968;28;20045;-85
2023/06/28 07:25:36;;;;;;;8.05;3.20;;;17.30;92.00;;;;;;5068281;28;20041;-85
2023/06/28 07:28:02;;;;;;;11.70;3.55;;;17.30;91.70;;;;;;5054322;28;20049;-85
2023/06/28 07:30:30;;;;;;;8.07;3.47;;;17.20;91.90;;;;;;5070534;28;20549;-85
2023/06/28 07:32:57;;;;;;;9.18;3.58;;;17.30;91.50;;;;;;5054277;28;20045;-84
2023/06/28 07:35:22;;;;;;;10.35;4.10;;;17.20;91.80;;;;;;5054559;28;20045;-85
2023/06/28 07:37:48;;;;;;;10.40;3.72;;;17.30;92.60;;;;;;5056548;28;20097;-85
2023/06/28 07:40:14;;;;;;;9.93;4.00;;;17.30;92.20;;;;;;5054627;28;20119;-85
2023/06/28 07:42:42;;;;;;;6.10;2.55;;;17.30;92.30;;;;;;5037094;28;20053;-85
2023/06/28 07:45:08;;;;;;;9.85;3.88;;;17.30;91.60;;;;;;5054753;28;20048;-84
2023/06/28 07:47:34;;;;;;;9.00;3.75;;;17.30;91.90;;;;;;5053787;28;20102;-85
2023/06/28 07:50:00;;;;;;;10.55;3.95;;;17.30;91.80;;;;;;5055022;28;20477;-84
2023/06/28 07:52:25;;;;;;;7.47;3.80;;;17.40;92.70;;;;;;5053536;28;20049;-85
2023/06/28 07:54:51;;;;;;;8.93;3.92;;;17.40;92.30;;;;;;5055168;28;20052;-84
2023/06/28 07:57:17;;;;;;;7.20;2.78;;;17.40;92.50;;;;;;5059750;28;20040;-84
2023/06/28 07:59:42;;;;;;;8.30;3.63;;;17.40;92.00;;;;;;5074428;28;20045;-83
2023/06/28 08:02:08;;;;;;;10.75;4.25;;;17.40;92.20;;;;;;5058628;28;20037;-84
2023/06/28 08:04:33;;;;;;;7.95;3.25;;;17.40;92.30;;;;;;5062159;28;20053;-83
2023/06/28 08:06:59;;;;;;;8.98;4.13;;;17.40;92.20;;;;;;5060706;28;20482;-82
2023/06/28 08:09:25;;;;;;;8.88;4.05;;;17.40;92.50;;;;;;5053515;28;20040;-83
2023/06/28 08:11:51;;;;;;;6.65;3.08;;;17.40;92.70;;;;;;5054496;28;20124;-83
2023/06/28 08:14:16;;;;;;;11.75;3.83;;;17.40;92.20;;;;;;5053979;28;20041;-83
2023/06/28 08:16:43;;;;;;;7.22;3.65;;;17.50;92.30;;;;;;5052675;28;20087;-82
2023/06/28 08:19:10;;;;;;;10.43;5.63;;;17.50;92.10;;;;;;5053837;28;20076;-83
2023/06/28 08:21:36;;;;;;;7.38;4.30;;;17.40;93.70;;;;;;5053886;28;20147;-83
2023/06/28 08:24:02;;;;;;;8.02;3.20;;;17.50;93.70;;;;;;5055222;28;20123;-82
2023/06/28 08:26:28;;;;;;;6.00;3.67;;;17.50;93.10;;;;;;5074304;28;20063;-82
2023/06/28 08:28:53;;;;;;;8.95;4.80;;;17.50;92.80;;;;;;5072040;28;20048;-81
2023/06/28 08:31:19;;;;;;;9.55;4.82;;;17.50;93.40;;;;;;5071343;28;20072;-80
2023/06/28 08:33:44;;;;;;;7.93;3.95;;;17.50;93.60;;;;;;5072849;28;20041;-80
2023/06/28 08:36:10;;;;;;;9.70;4.35;;;17.50;93.30;;;;;;5053610;28;20479;-81
2023/06/28 08:38:36;;;;;;;11.75;5.40;;;17.50;93.20;;;;;;5053302;28;20041;-82
2023/06/28 08:41:01;;;;;;;8.80;5.40;;;17.50;93.60;;;;;;5053612;28;20040;-81
2023/06/28 08:43:27;;;;;;;8.88;4.68;;;17.50;94.30;;;;;;5053522;28;20482;-81
2023/06/28 08:45:53;;;;;;;11.07;5.57;;;17.60;94.50;;;;;;5054135;28;20045;-81
2023/06/28 08:48:19;;;;;;;10.63;6.05;;;17.60;94.20;;;;;;5055017;28;20049;-81
2023/06/28 08:50:45;;;;;;;11.48;5.55;;;17.60;94.30;;;;;;5059424;28;20053;-81
2023/06/28 08:53:16;;;;;;;7.90;3.90;;;17.60;94.20;;;;;;5074168;28;20063;-82
2023/06/28 08:55:43;;;;;;;11.02;6.28;;;17.60;93.70;;;;;;5070048;28;20044;-84
2023/06/28 08:58:11;;;;;;;14.43;5.78;;;17.70;94.20;;;;;;5054144;28;20056;-81
2023/06/28 09:00:37;;;;;;;14.30;7.45;;;17.70;94.10;;;;;;5069759;28;20129;-83
2023/06/28 09:03:05;;;;;;;12.77;6.88;;;17.70;94.60;;;;;;5072641;28;20090;-81
2023/06/28 09:05:34;;;;;;;8.43;4.95;;;17.70;95.40;;;;;;5049680;28;20041;-83
2023/06/28 09:08:00;;;;;;;12.57;7.05;;;17.80;94.20;;;;;;5063177;28;20124;-83
2023/06/28 09:10:26;;;;;;;16.33;7.35;;;17.80;94.60;;;;;;5055927;28;20037;-83
2023/06/28 09:12:52;;;;;;;12.65;7.00;;;17.80;94.90;;;;;;5054421;28;20048;-83
2023/06/28 09:15:21;;;;;;;14.48;7.65;;;17.80;94.70;;;;;;5054550;28;20045;-83
2023/06/28 09:17:46;;;;;;;13.32;7.25;;;17.80;94.70;;;;;;5053773;28;20498;-83
2023/06/28 09:20:20;;;;;;;9.70;5.22;;;17.90;94.50;;;;;;5053412;28;20052;-82
2023/06/28 09:22:57;;;;;;;16.25;8.65;;;17.90;93.80;;;;;;5053363;28;20045;-82
2023/06/28 09:25:24;;;;;;;9.27;5.50;;;17.90;94.70;;;;;;5052089;28;20099;-84
2023/06/28 09:27:50;;;;;;;16.15;8.40;;;18.00;94.00;;;;;;5054398;28;20040;-81
2023/06/28 09:30:18;;;;;;;12.95;6.63;;;17.90;94.40;;;;;;5056883;28;20045;-82
2023/06/28 09:32:50;;;;;;;13.27;7.18;;;18.00;94.40;;;;;;5057172;28;20067;-82
2023/06/28 09:35:19;;;;;;;14.25;6.75;;;18.00;93.80;;;;;;5057727;28;20088;-81
2023/06/28 09:37:50;;;;;;;11.23;7.55;;;18.00;93.80;;;;;;5038911;28;20482;-81
2023/06/28 09:40:20;;;;;;;15.68;7.93;;;18.10;93.80;;;;;;5056818;28;20048;-83
2023/06/28 09:42:47;;;;;;;12.43;7.28;;;18.10;93.80;;;;;;5056544;28;20091;-81
2023/06/28 09:45:27;;;;;;;18.52;10.35;;;18.10;93.60;;;;;;5057751;28;20045;-81
2023/06/28 09:48:01;;;;;;;11.18;6.18;;;18.10;94.00;;;;;;5056282;28;20049;-81
2023/06/28 09:50:36;;;;;;;13.20;8.25;;;18.10;93.20;;;;;;5055999;28;20057;-81
2023/06/28 09:53:03;;;;;;;15.23;9.55;;;18.10;93.80;;;;;;5057492;28;20119;-82
2023/06/28 09:55:29;;;;;;;10.65;6.90;;;18.10;94.20;;;;;;5057207;28;20045;-82
2023/06/28 09:57:56;;;;;;;14.82;8.00;;;18.10;94.00;;;;;;5055285;28;20056;-81
2023/06/28 10:00:23;;;;;;;17.38;10.27;;;18.20;94.10;;;;;;5072811;28;20049;-83
2023/06/28 10:02:49;;;;;;;14.45;9.20;;;18.20;94.80;;;;;;5075848;28;20478;-82
2023/06/28 10:05:15;;;;;;;11.13;7.03;;;18.10;94.90;;;;;;5071906;28;20052;-82
2023/06/28 10:07:42;;;;;;;17.02;9.55;;;18.20;94.30;;;;;;5058389;28;20037;-82
2023/06/28 10:10:09;;;;;;;13.95;8.10;;;18.10;94.70;;;;;;5055166;28;20045;-82
2023/06/28 10:12:37;;;;;;;13.57;8.10;;;18.20;94.60;;;;;;5056110;28;20517;-82
2023/06/28 10:15:08;;;;;;;14.20;9.52;;;18.20;94.40;;;;;;5056448;28;20495;-82
2023/06/28 10:17:35;;;;;;;14.35;8.40;;;18.20;95.00;;;;;;5056110;28;20041;-82
2023/06/28 10:20:04;;;;;;;10.13;7.05;;;18.20;95.10;;;;;;5055967;28;20052;-81
2023/06/28 10:22:30;;;;;;;15.50;10.85;;;18.20;94.20;;;;;;5088356;28;20103;-82
2023/06/28 10:24:57;;;;;;;12.45;8.75;;;18.20;94.90;;;;;;5055871;28;20475;-82
2023/06/28 10:27:23;;;;;;;16.90;10.73;;;18.20;94.70;;;;;;5055967;28;20056;-82
2023/06/28 10:29:50;;;;;;;17.58;10.68;;;18.20;95.10;;;;;;5066110;28;20394;-82
2023/06/28 10:32:16;;;;;;;12.15;7.88;;;18.20;95.10;;;;;;5058770;28;20045;-81
2023/06/28 10:34:45;;;;;;;14.93;8.10;;;18.30;94.70;;;;;;5053749;28;20124;-80
2023/06/28 10:37:12;;;;;;;11.65;7.57;;;18.30;94.40;;;;;;5046625;28;20482;-81
2023/06/28 10:39:38;;;;;;;13.27;9.20;;;18.30;94.00;;;;;;5068593;28;20052;-81
2023/06/28 10:42:05;;;;;;;13.52;8.75;;;18.30;94.40;;;;;;5041260;28;20056;-81
2023/06/28 10:44:31;;;;;;;13.93;10.27;;;18.30;94.70;;;;;;5054905;28;20045;-81
2023/06/28 10:47:16;;;;;;;17.80;10.02;;;18.40;95.00;;;;;;5054824;28;20049;-80
2023/06/28 10:49:42;;;;;;;10.90;6.90;;;18.30;95.10;;;;;;5055101;28;20076;-80
2023/06/28 10:52:18;;;;;;;12.52;7.13;;;18.40;94.00;;;;;;5070447;28;20529;-80
2023/06/28 10:54:45;;;;;;;13.50;9.05;;;18.40;93.30;;;;;;5077498;28;20453;-80
2023/06/28 10:57:11;;;;;;;12.05;8.48;;;18.40;94.10;;;;;;5066476;28;20045;-81
2023/06/28 10:59:41;;;;;;;12.70;8.93;;;18.40;94.30;;;;;;5053192;28;20091;-81
2023/06/28 11:02:07;;;;;;;10.52;7.50;;;18.50;94.90;;;;;;5054234;28;20033;-81
2023/06/28 11:04:33;;;;;;;11.85;7.95;;;18.50;94.50;;;;;;5054140;28;20445;-81
2023/06/28 11:07:19;;;;;;;11.60;8.90;;;18.50;94.30;;;;;;5054164;28;20045;-80
2023/06/28 11:10:11;;;;;;;13.45;10.10;;;18.50;94.80;;;;;;5056944;28;20045;-81
2023/06/28 11:12:40;;;;;;;10.23;7.45;;;18.50;95.10;;;;;;5046577;28;20487;-82
2023/06/28 11:15:12;;;;;;;8.88;6.70;;;18.60;94.30;;;;;;5053882;28;20072;-81
2023/06/28 11:17:39;;;;;;;13.32;9.20;;;18.60;93.40;;;;;;5037201;28;20053;-81
2023/06/28 11:20:10;;;;;;;10.13;6.80;;;18.60;94.20;;;;;;5053570;28;20053;-81
2023/06/28 11:22:53;;;;;;;9.77;7.45;;;18.70;93.80;;;;;;5054635;28;20049;-82
2023/06/28 11:25:28;;;;;;;13.30;9.25;;;18.70;93.80;;;;;;5057537;28;20119;-81
2023/06/28 11:27:57;;;;;;;13.52;8.57;;;18.70;94.20;;;;;;5068897;28;20044;-81
2023/06/28 11:30:47;;;;;;;13.52;10.55;;;18.70;94.30;;;;;;5067023;28;20083;-81
2023/06/28 11:33:14;;;;;;;10.77;8.43;;;18.70;95.00;;;;;;5073922;28;20068;-81
2023/06/28 11:35:40;;;;;;;11.07;8.65;;;18.70;94.60;;;;;;5073398;28;20509;-81
2023/06/28 11:38:07;;;;;;;10.60;8.40;;;18.70;94.50;;;;;;5074680;28;20051;-82
2023/06/28 11:40:33;;;;;;;10.75;7.97;;;18.70;94.20;;;;;;5074387;28;20048;-81
2023/06/28 11:42:59;;;;;;;12.20;9.23;;;18.80;94.10;;;;;;5074456;28;20044;-80
2023/06/28 11:45:27;;;;;;;14.57;9.88;;;18.80;94.10;;;;;;5072663;28;20048;-81
2023/06/28 11:47:53;;;;;;;12.35;9.02;;;18.80;94.80;;;;;;5053894;28;20044;-79
2023/06/28 11:50:22;;;;;;;11.80;7.57;;;18.90;94.50;;;;;;5053794;28;20387;-81
2023/06/28 11:52:48;;;;;;;12.77;10.32;;;18.90;93.70;;;;;;5062407;28;20109;-81
2023/06/28 11:55:15;;;;;;;13.65;10.52;;;18.90;93.70;;;;;;5053006;28;20049;-81
2023/06/28 11:57:47;;;;;;;13.05;10.65;;;18.90;93.80;;;;;;5083903;28;20052;-82
2023/06/28 12:00:17;;;;;;;12.73;9.68;;;18.90;94.00;;;;;;5057271;28;20068;-81
2023/06/28 12:02:50;;;;;;;15.20;11.60;;;18.90;94.00;;;;;;5057575;28;20038;-81
2023/06/28 12:05:18;;;;;;;13.52;10.75;;;18.90;94.20;;;;;;5054693;28;20048;-81
2023/06/28 12:07:46;;;;;;;15.40;11.82;;;19.00;94.20;;;;;;5062792;28;20094;-81
2023/06/28 12:10:11;;;;;;;15.18;12.93;;;19.00;94.50;;;;;;5055153;28;20395;-81
2023/06/28 12:12:41;;;;;;;14.52;10.32;;;19.00;94.90;;;;;;5056233;28;20033;-81
2023/06/28 12:15:12;;;;;;;14.05;11.15;;;19.00;94.30;;;;;;5052909;28;20495;-81
2023/06/28 12:17:42;;;;;;;15.18;10.93;;;19.00;94.20;;;;;;5053503;28;20139;-81
2023/06/28 12:20:09;;;;;;;18.25;15.05;;;19.00;94.40;;;;;;5052290;28;20049;-81
2023/06/28 12:22:43;;;;;;;12.02;9.68;;;19.00;94.90;;;;;;5053411;28;20124;-80
2023/06/28 12:25:09;;;;;;;14.18;12.30;;;19.00;94.00;;;;;;5079748;28;20052;-80
2023/06/28 12:27:35;;;;;;;17.20;10.50;;;19.00;94.30;;;;;;5054438;28;20049;-81
2023/06/28 12:30:12;;;;;;;19.48;12.15;;;19.10;94.00;;;;;;5053843;28;20045;-81
2023/06/28 12:32:47;;;;;;;17.88;14.23;;;19.00;94.00;;;;;;5053561;28;20037;-81
2023/06/28 12:35:23;;;;;;;18.25;15.55;;;19.10;94.40;;;;;;5063916;28;20055;-80
2023/06/28 12:38:01;;;;;;;19.63;14.05;;;19.00;94.90;;;;;;5055419;28;20040;-81
2023/06/28 12:40:36;;;;;;;18.63;13.95;;;19.10;94.90;;;;;;5053176;28;20056;-81
2023/06/28 12:43:08;;;;;;;14.30;11.50;;;19.10;94.70;;;;;;5056991;28;20037;-80